createdAt,value
2019-02-21T00:01:22.412Z,33.10
2019-02-21T00:03:51.840Z,31.40
2019-02-21T00:06:20.964Z,29.65
2019-02-21T00:08:50.081Z,30.70
2019-02-21T00:11:19.202Z,33.02
2019-02-21T00:13:48.316Z,28.23
2019-02-21T00:16:17.432Z,33.63
2019-02-21T00:18:46.550Z,29.98
2019-02-21T00:21:15.660Z,35.73
2019-02-21T00:23:44.786Z,32.38
2019-02-21T00:26:13.899Z,33.02
2019-02-21T00:28:43.027Z,36.13
2019-02-21T00:31:12.155Z,33.23
2019-02-21T00:33:41.274Z,32.98
2019-02-21T00:36:10.639Z,30.45
2019-02-21T00:38:39.759Z,29.15
2019-02-21T00:41:08.883Z,29.70
2019-02-21T00:43:37.999Z,30.40
2019-02-21T00:46:07.127Z,32.38
2019-02-21T00:48:36.241Z,35.13
2019-02-21T00:51:05.414Z,32.15
2019-02-21T00:53:34.525Z,38.05
2019-02-21T00:56:03.661Z,31.42
2019-02-21T00:58:33.013Z,35.83
2019-02-21T01:01:02.411Z,31.12
2019-02-21T01:03:31.515Z,34.75
2019-02-21T01:06:00.887Z,32.93
2019-02-21T01:08:30.299Z,31.50
2019-02-21T01:10:59.416Z,34.55
2019-02-21T01:13:29.007Z,35.92
2019-02-21T01:15:58.120Z,33.88
2019-02-21T01:18:27.243Z,35.23
2019-02-21T01:20:56.366Z,28.45
2019-02-21T01:23:25.493Z,32.15
2019-02-21T01:25:54.613Z,32.55
2019-02-21T01:28:23.732Z,33.48
2019-02-21T01:30:56.969Z,38.83
2019-02-21T01:33:23.677Z,34.78
2019-02-21T01:35:52.780Z,35.28
2019-02-21T01:38:21.903Z,33.02
2019-02-21T01:40:51.092Z,32.50
2019-02-21T01:43:20.212Z,29.55
2019-02-21T01:45:49.635Z,35.68
2019-02-21T01:48:18.770Z,32.45
2019-02-21T01:50:47.851Z,32.67
2019-02-21T01:53:16.986Z,35.85
2019-02-21T01:55:46.089Z,32.83
2019-02-21T01:58:16.206Z,35.08
2019-02-21T02:00:45.302Z,33.90
2019-02-21T02:03:14.472Z,33.45
2019-02-21T02:05:43.608Z,33.60
2019-02-21T02:08:12.762Z,33.53
2019-02-21T02:10:41.840Z,32.60
2019-02-21T02:13:23.800Z,36.38
2019-02-21T02:15:41.777Z,33.40
2019-02-21T02:18:10.893Z,32.78
2019-02-21T02:20:40.344Z,34.48
2019-02-21T02:23:09.473Z,36.88
2019-02-21T02:25:38.589Z,30.92
2019-02-21T02:28:07.713Z,33.75
2019-02-21T02:30:36.836Z,35.03
2019-02-21T02:33:06.051Z,32.55
2019-02-21T02:35:35.178Z,35.35
2019-02-21T02:38:04.303Z,36.68
2019-02-21T02:40:33.478Z,37.05
2019-02-21T02:43:02.551Z,31.60
2019-02-21T02:45:31.693Z,31.07
2019-02-21T02:48:01.029Z,33.83
2019-02-21T02:50:31.117Z,42.43
2019-02-21T02:53:00.248Z,36.68
2019-02-21T02:55:29.368Z,32.80
2019-02-21T02:57:58.741Z,29.57
2019-02-21T03:00:27.864Z,33.63
2019-02-21T03:02:57.023Z,32.20
2019-02-21T03:05:26.141Z,30.88
2019-02-21T03:07:55.264Z,34.95
2019-02-21T03:10:24.380Z,32.17
2019-02-21T03:12:53.501Z,34.30
2019-02-21T03:15:22.622Z,31.85
2019-02-21T03:17:51.761Z,37.10
2019-02-21T03:20:20.869Z,35.63
2019-02-21T03:22:49.987Z,28.60
2019-02-21T03:25:19.108Z,29.75
2019-02-21T03:27:48.228Z,29.63
2019-02-21T03:30:17.369Z,31.25
2019-02-21T03:32:46.487Z,28.62
2019-02-21T03:35:15.608Z,32.93
2019-02-21T03:37:44.730Z,33.63
2019-02-21T03:40:13.851Z,28.17
2019-02-21T03:42:42.970Z,27.85
2019-02-21T03:45:13.454Z,28.07
2019-02-21T03:47:44.603Z,29.05
2019-02-21T03:50:13.383Z,32.28
2019-02-21T03:52:42.499Z,28.00
2019-02-21T03:55:11.622Z,33.23
2019-02-21T03:57:40.744Z,33.95
2019-02-21T04:00:11.418Z,34.27
2019-02-21T04:02:40.776Z,29.18
2019-02-21T04:05:09.897Z,27.70
2019-02-21T04:07:39.016Z,28.05
2019-02-21T04:10:09.072Z,30.77
2019-02-21T04:12:38.200Z,29.30
2019-02-21T04:15:09.623Z,33.80
2019-02-21T04:17:38.741Z,31.48
2019-02-21T04:20:08.800Z,33.30
2019-02-21T04:22:37.918Z,34.55
2019-02-21T04:25:07.044Z,30.88
2019-02-21T04:27:36.163Z,32.95
2019-02-21T04:30:05.920Z,30.48
2019-02-21T04:32:35.051Z,30.55
2019-02-21T04:35:04.433Z,31.23
2019-02-21T04:37:33.564Z,36.28
2019-02-21T04:40:02.919Z,36.20
2019-02-21T04:42:32.041Z,31.50
2019-02-21T04:45:01.161Z,31.87
2019-02-21T04:47:30.354Z,35.00
2019-02-21T04:49:59.470Z,34.60
2019-02-21T04:52:28.604Z,31.17
2019-02-21T04:54:57.762Z,33.73
2019-02-21T04:57:26.889Z,35.70
2019-02-21T04:59:56.012Z,35.45
2019-02-21T05:02:29.269Z,37.03
2019-02-21T05:04:55.947Z,32.80
2019-02-21T05:07:25.078Z,35.80
2019-02-21T05:09:58.058Z,37.42
2019-02-21T05:12:25.024Z,38.40
2019-02-21T05:14:54.151Z,37.08
2019-02-21T05:17:23.269Z,34.58
2019-02-21T05:19:52.386Z,36.65
2019-02-21T05:22:21.798Z,32.95
2019-02-21T05:24:50.914Z,34.30
2019-02-21T05:27:21.671Z,34.45
2019-02-21T05:29:50.786Z,34.25
2019-02-21T05:32:40.219Z,32.88
2019-02-21T05:35:18.776Z,37.50
2019-02-21T05:37:52.193Z,36.00
2019-02-21T05:40:37.914Z,36.00
2019-02-21T05:43:15.097Z,37.55
2019-02-21T05:45:48.746Z,34.03
2019-02-21T05:48:25.472Z,34.43
2019-02-21T05:50:59.298Z,35.98
2019-02-21T05:56:05.719Z,35.75
2019-02-21T05:58:42.348Z,33.10
2019-02-21T06:01:15.751Z,38.92
2019-02-21T06:03:50.567Z,36.23
2019-02-21T06:08:51.323Z,39.27
2019-02-21T06:14:24.014Z,37.93
2019-02-21T06:17:03.937Z,34.30
2019-02-21T06:19:34.702Z,43.73
2019-02-21T06:22:11.020Z,37.40
2019-02-21T06:24:40.974Z,42.83
2019-02-21T06:27:12.370Z,45.00
2019-02-21T06:29:43.397Z,42.38
2019-02-21T06:32:14.502Z,42.60
2019-02-21T06:34:43.279Z,42.48
2019-02-21T06:37:12.790Z,43.40
2019-02-21T06:39:42.006Z,43.23
2019-02-21T06:42:11.126Z,45.98
2019-02-21T06:44:40.391Z,43.45
2019-02-21T06:47:09.561Z,49.03
2019-02-21T06:49:38.684Z,40.67
2019-02-21T06:52:07.798Z,45.65
2019-02-21T06:54:36.917Z,47.45
2019-02-21T06:57:06.052Z,41.90
2019-02-21T06:59:43.357Z,45.28
2019-02-21T07:02:06.036Z,47.08
2019-02-21T07:04:35.170Z,45.55
2019-02-21T07:07:04.276Z,44.50
2019-02-21T07:09:33.394Z,47.98
2019-02-21T07:12:02.832Z,50.50
2019-02-21T07:14:34.415Z,46.60
2019-02-21T07:17:03.063Z,51.45
2019-02-21T07:19:32.188Z,52.40
2019-02-21T07:22:01.310Z,49.73
2019-02-21T07:24:30.986Z,49.30
2019-02-21T07:27:00.382Z,55.33
2019-02-21T07:29:30.510Z,55.55
2019-02-21T07:31:59.927Z,56.35
2019-02-21T07:34:30.486Z,53.73
2019-02-21T07:36:59.727Z,51.85
2019-02-21T07:39:36.187Z,54.45
2019-02-21T07:41:59.665Z,54.05
2019-02-21T07:44:28.783Z,57.17
2019-02-21T07:46:57.903Z,54.85
2019-02-21T07:49:27.034Z,52.78
2019-02-21T07:51:56.466Z,51.83
2019-02-21T07:54:25.596Z,53.80
2019-02-21T07:56:54.720Z,53.98
2019-02-21T07:59:23.838Z,55.48
2019-02-21T08:01:52.968Z,55.45
2019-02-21T08:04:22.091Z,54.83
2019-02-21T08:06:55.426Z,59.27
2019-02-21T08:09:23.134Z,51.33
2019-02-21T08:11:52.245Z,51.70
2019-02-21T08:14:21.362Z,55.17
2019-02-21T08:16:50.490Z,55.70
2019-02-21T08:19:19.607Z,61.68
2019-02-21T08:21:48.905Z,62.93
2019-02-21T08:24:18.034Z,56.18
2019-02-21T08:26:47.295Z,56.13
2019-02-21T08:29:16.398Z,58.35
2019-02-21T08:31:45.538Z,53.38
2019-02-21T08:34:16.294Z,53.17
2019-02-21T08:36:45.414Z,57.48
2019-02-21T08:39:14.578Z,58.60
2019-02-21T08:41:43.703Z,52.65
2019-02-21T08:44:12.826Z,55.55
2019-02-21T08:46:41.955Z,54.63
2019-02-21T08:49:11.108Z,55.17
2019-02-21T08:51:40.299Z,59.63
2019-02-21T08:54:11.385Z,56.85
2019-02-21T08:56:40.240Z,58.02
2019-02-21T08:59:09.606Z,56.70
2019-02-21T09:01:38.724Z,52.93
2019-02-21T09:04:13.591Z,55.00
2019-02-21T09:06:38.675Z,55.30
2019-02-21T09:09:07.849Z,54.15
2019-02-21T09:11:37.128Z,51.25
2019-02-21T09:14:06.257Z,56.37
2019-02-21T09:16:35.376Z,58.92
2019-02-21T09:19:04.507Z,55.05
2019-02-21T09:21:35.001Z,60.25
2019-02-21T09:24:04.363Z,62.05
2019-02-21T09:26:34.780Z,53.40
2019-02-21T09:29:03.859Z,52.35
2019-02-21T09:31:33.216Z,57.80
2019-02-21T09:34:02.347Z,53.98
2019-02-21T09:36:31.701Z,57.03
2019-02-21T09:39:00.822Z,53.70
2019-02-21T09:41:32.164Z,55.03
2019-02-21T09:44:01.478Z,53.70
2019-02-21T09:46:30.912Z,55.00
2019-02-21T09:49:02.845Z,54.88
2019-02-21T09:51:31.078Z,51.98
2019-02-21T09:54:00.439Z,56.18
2019-02-21T09:56:30.869Z,53.63
2019-02-21T09:59:00.051Z,54.88
2019-02-21T10:01:29.405Z,56.15
2019-02-21T10:03:58.526Z,53.00
2019-02-21T10:06:27.653Z,51.60
2019-02-21T10:08:56.772Z,49.10
2019-02-21T10:11:25.891Z,53.10
2019-02-21T10:13:55.022Z,49.30
2019-02-21T10:16:24.137Z,55.98
2019-02-21T10:18:53.262Z,54.25
2019-02-21T10:21:22.382Z,56.73
2019-02-21T10:23:51.496Z,55.45
2019-02-21T10:26:20.633Z,53.02
2019-02-21T10:28:50.001Z,50.55
2019-02-21T10:31:19.134Z,54.38
2019-02-21T10:33:48.251Z,50.83
2019-02-21T10:36:17.378Z,51.08
2019-02-21T10:38:46.500Z,51.40
2019-02-21T10:41:15.626Z,55.65
2019-02-21T10:43:44.744Z,48.68
2019-02-21T10:46:14.101Z,50.45
2019-02-21T10:48:43.223Z,53.33
2019-02-21T10:51:12.354Z,49.70
2019-02-21T10:53:41.479Z,48.78
2019-02-21T10:56:10.626Z,50.55
2019-02-21T10:58:40.714Z,47.80
2019-02-21T11:01:09.848Z,42.25
2019-02-21T11:03:38.971Z,47.70
2019-02-21T11:06:08.103Z,39.98
2019-02-21T11:08:37.460Z,43.13
2019-02-21T11:11:06.598Z,38.88
2019-02-21T11:13:35.739Z,37.30
2019-02-21T11:16:04.848Z,35.48
2019-02-21T11:18:33.972Z,33.38
2019-02-21T11:21:03.106Z,29.25
2019-02-21T11:23:32.229Z,32.03
2019-02-21T11:26:01.360Z,33.73
2019-02-21T11:28:30.493Z,29.42
2019-02-21T11:30:59.685Z,29.10
2019-02-21T11:33:28.817Z,26.62
2019-02-21T11:35:57.917Z,28.02
2019-02-21T11:38:27.065Z,24.45
2019-02-21T11:40:56.172Z,24.90
2019-02-21T11:43:25.322Z,26.27
2019-02-21T11:45:57.376Z,24.50
2019-02-21T11:48:25.275Z,27.27
2019-02-21T11:50:54.633Z,26.27
2019-02-21T11:53:23.761Z,26.17
2019-02-21T11:55:52.882Z,27.62
2019-02-21T11:58:22.013Z,27.77
2019-02-21T12:00:51.135Z,27.00
2019-02-21T12:03:21.316Z,24.98
2019-02-21T12:05:50.568Z,23.75
2019-02-21T12:08:19.695Z,27.02
2019-02-21T12:10:50.905Z,23.05
2019-02-21T12:13:19.647Z,21.93
2019-02-21T12:15:48.774Z,23.07
2019-02-21T12:18:18.149Z,21.85
2019-02-21T12:20:47.253Z,21.73
2019-02-21T12:23:17.798Z,22.07
2019-02-21T12:25:46.979Z,19.48
2019-02-21T12:28:16.103Z,17.40
2019-02-21T12:30:45.223Z,16.77
2019-02-21T12:33:14.384Z,17.15
2019-02-21T12:35:43.711Z,20.68
2019-02-21T12:38:12.856Z,20.27
2019-02-21T12:40:41.962Z,20.32
2019-02-21T12:43:11.114Z,24.43
2019-02-21T12:45:40.227Z,24.37
2019-02-21T12:48:09.358Z,23.57
2019-02-21T12:50:44.393Z,21.23
2019-02-21T12:53:09.314Z,21.52
2019-02-21T12:55:38.435Z,22.25
2019-02-21T12:58:07.622Z,18.95
2019-02-21T13:00:36.746Z,21.65
2019-02-21T13:03:05.823Z,23.77
2019-02-21T13:05:40.915Z,23.25
2019-02-21T13:08:05.789Z,25.97
2019-02-21T13:10:35.135Z,23.95
2019-02-21T13:13:04.220Z,26.20
2019-02-21T13:15:33.583Z,22.87
2019-02-21T13:18:02.712Z,26.10
2019-02-21T13:20:31.839Z,25.90
2019-02-21T13:23:01.198Z,24.65
2019-02-21T13:25:30.609Z,25.85
2019-02-21T13:27:59.933Z,28.67
2019-02-21T13:30:29.062Z,29.77
2019-02-21T13:32:58.184Z,29.40
2019-02-21T13:35:29.275Z,26.30
2019-02-21T13:37:58.131Z,27.50
2019-02-21T13:40:27.270Z,23.75
2019-02-21T13:42:56.391Z,33.50
2019-02-21T13:45:25.750Z,29.40
2019-02-21T13:47:54.871Z,30.08
2019-02-21T13:50:24.060Z,33.73
2019-02-21T13:52:53.141Z,28.42
2019-02-21T13:55:22.276Z,27.93
2019-02-21T13:57:51.403Z,30.90
2019-02-21T14:00:21.903Z,29.75
2019-02-21T14:02:51.026Z,31.37
2019-02-21T14:05:20.153Z,29.55
2019-02-21T14:07:50.103Z,34.13
2019-02-21T14:10:19.227Z,27.82
2019-02-21T14:12:48.596Z,27.87
2019-02-21T14:15:20.723Z,29.45
2019-02-21T14:17:49.898Z,27.40
2019-02-21T14:20:19.003Z,26.30
2019-02-21T14:22:48.123Z,75.80
2019-02-21T14:25:17.263Z,27.35
2019-02-21T14:27:46.618Z,33.90
2019-02-21T14:30:19.848Z,32.15
2019-02-21T14:32:48.970Z,30.25
2019-02-21T14:35:18.116Z,31.62
2019-02-21T14:37:47.234Z,27.82
2019-02-21T14:40:17.099Z,29.12
2019-02-21T14:42:46.226Z,31.52
2019-02-21T14:45:23.640Z,26.20
2019-02-21T14:47:52.761Z,32.03
2019-02-21T14:50:21.883Z,30.37
2019-02-21T14:52:51.011Z,27.15
2019-02-21T14:55:20.374Z,30.02
2019-02-21T14:57:49.516Z,32.58
2019-02-21T15:00:26.728Z,31.05
2019-02-21T15:02:57.754Z,24.57
2019-02-21T15:05:27.837Z,30.10
2019-02-21T15:07:56.967Z,27.87
2019-02-21T15:10:26.091Z,27.50
2019-02-21T15:12:55.460Z,30.82
2019-02-21T15:15:26.494Z,29.67
2019-02-21T15:18:06.577Z,26.60
2019-02-21T15:20:36.189Z,30.77
2019-02-21T15:22:57.272Z,29.98
2019-02-21T15:25:26.402Z,30.62
2019-02-21T15:27:55.535Z,29.23
2019-02-21T15:30:27.328Z,26.85
2019-02-21T15:32:56.460Z,32.95
2019-02-21T15:35:25.591Z,30.17
2019-02-21T15:37:54.726Z,25.75
2019-02-21T15:40:24.087Z,33.40
2019-02-21T15:42:53.238Z,26.70
2019-02-21T15:45:29.477Z,29.72
2019-02-21T15:47:58.607Z,31.48
2019-02-21T15:50:27.735Z,30.57
2019-02-21T15:52:57.194Z,30.72
2019-02-21T15:55:26.331Z,33.05
2019-02-21T15:58:03.820Z,28.35
2019-02-21T16:00:26.284Z,27.20
2019-02-21T16:02:55.415Z,24.98
2019-02-21T16:05:24.574Z,28.15
2019-02-21T16:07:53.689Z,26.45
2019-02-21T16:10:25.227Z,31.17
2019-02-21T16:12:54.640Z,25.70
2019-02-21T16:15:24.032Z,31.85
2019-02-21T16:17:53.147Z,26.55
2019-02-21T16:20:22.280Z,24.63
2019-02-21T16:22:51.436Z,24.43
2019-02-21T16:25:31.643Z,26.60
2019-02-21T16:28:00.783Z,30.90
2019-02-21T16:30:29.898Z,29.52
2019-02-21T16:32:59.059Z,24.67
2019-02-21T16:35:28.184Z,23.38
2019-02-21T16:37:57.317Z,31.23
2019-02-21T16:40:26.447Z,27.65
2019-02-21T16:42:56.549Z,24.72
2019-02-21T16:45:25.674Z,26.65
2019-02-21T16:47:54.810Z,29.18
2019-02-21T16:50:29.717Z,30.12
2019-02-21T16:52:54.762Z,30.85
2019-02-21T16:55:24.626Z,28.60
2019-02-21T16:57:53.988Z,33.50
2019-02-21T17:00:23.852Z,28.98
2019-02-21T17:02:52.987Z,26.00
2019-02-21T17:05:22.108Z,40.98
2019-02-21T17:07:51.235Z,31.70
2019-02-21T17:10:20.354Z,35.98
2019-02-21T17:12:49.525Z,30.10
2019-02-21T17:15:18.967Z,32.00
2019-02-21T17:17:48.082Z,30.75
2019-02-21T17:20:21.654Z,28.95
2019-02-21T17:22:50.773Z,33.38
2019-02-21T17:25:19.902Z,33.40
2019-02-21T17:27:50.819Z,34.78
2019-02-21T17:30:20.255Z,30.68
2019-02-21T17:32:49.375Z,35.17
2019-02-21T17:35:18.497Z,32.23
2019-02-21T17:37:47.718Z,39.03
2019-02-21T17:40:22.496Z,35.38
2019-02-21T17:42:51.623Z,35.48
2019-02-21T17:45:20.758Z,34.67
2019-02-21T17:47:49.885Z,38.15
2019-02-21T17:50:19.983Z,43.68
2019-02-21T17:52:49.383Z,36.77
2019-02-21T17:55:18.588Z,39.00
2019-02-21T17:57:47.715Z,34.55
2019-02-21T18:00:23.202Z,36.25
2019-02-21T18:02:52.343Z,40.38
2019-02-21T18:05:21.466Z,39.38
2019-02-21T18:07:50.841Z,40.88
2019-02-21T18:10:19.963Z,36.10
2019-02-21T18:12:49.085Z,38.78
2019-02-21T18:15:18.461Z,38.70
2019-02-21T18:17:47.586Z,37.03
2019-02-21T18:20:16.795Z,35.73
2019-02-21T18:22:45.970Z,35.90
2019-02-21T18:25:18.453Z,40.98
2019-02-21T18:27:47.648Z,40.92
2019-02-21T18:30:17.495Z,40.20
2019-02-21T18:32:46.854Z,40.33
2019-02-21T18:35:15.985Z,38.98
2019-02-21T18:37:47.689Z,36.80
2019-02-21T18:40:23.660Z,36.60
2019-02-21T18:42:53.012Z,36.95
2019-02-21T18:45:22.143Z,41.63
2019-02-21T18:47:52.232Z,35.15
2019-02-21T18:50:21.595Z,34.67
2019-02-21T18:52:50.717Z,36.98
2019-02-21T18:55:19.860Z,35.40
2019-02-21T18:57:48.980Z,34.43
2019-02-21T19:00:22.446Z,37.10
2019-02-21T19:02:51.806Z,39.13
2019-02-21T19:05:21.484Z,33.05
2019-02-21T19:07:59.629Z,36.88
2019-02-21T19:10:22.487Z,36.13
2019-02-21T19:12:51.610Z,34.27
2019-02-21T19:15:21.667Z,36.30
2019-02-21T19:17:50.803Z,33.13
2019-02-21T19:20:21.184Z,37.03
2019-02-21T19:22:50.294Z,37.30
2019-02-21T19:25:19.426Z,38.50
2019-02-21T19:27:48.546Z,55.03
2019-02-21T19:30:25.664Z,54.00
2019-02-21T19:32:54.558Z,61.33
2019-02-21T19:35:23.722Z,57.08
2019-02-21T19:37:52.844Z,44.83
2019-02-21T19:40:21.975Z,51.92
2019-02-21T19:42:52.309Z,37.98
2019-02-21T19:45:21.677Z,40.23
2019-02-21T19:47:51.051Z,38.48
2019-02-21T19:50:20.163Z,37.10
2019-02-21T19:52:49.297Z,33.88
2019-02-21T19:55:18.650Z,33.53
2019-02-21T19:57:47.774Z,35.58
2019-02-21T20:00:24.091Z,38.25
2019-02-21T20:02:53.529Z,35.92
2019-02-21T20:05:22.724Z,42.00
2019-02-21T20:07:51.858Z,39.45
2019-02-21T20:10:20.985Z,39.03
2019-02-21T20:12:50.115Z,41.23
2019-02-21T20:15:19.257Z,40.92
2019-02-21T20:17:48.382Z,44.60
2019-02-21T20:20:19.759Z,41.23
2019-02-21T20:22:48.906Z,42.80
2019-02-21T20:25:18.014Z,35.33
2019-02-21T20:27:47.210Z,45.03
2019-02-21T20:30:17.590Z,43.78
2019-02-21T20:32:46.772Z,42.27
2019-02-21T20:35:16.142Z,38.98
2019-02-21T20:37:45.286Z,43.87
2019-02-21T20:40:14.632Z,41.15
2019-02-21T20:42:43.843Z,39.53
2019-02-21T20:45:14.105Z,42.43
2019-02-21T20:47:43.238Z,50.90
2019-02-21T20:50:12.600Z,46.77
2019-02-21T20:52:41.733Z,46.08
2019-02-21T20:55:11.410Z,50.25
2019-02-21T20:57:40.542Z,53.05
2019-02-21T21:00:15.343Z,51.88
2019-02-21T21:02:45.991Z,53.75
2019-02-21T21:05:15.136Z,47.38
2019-02-21T21:07:44.567Z,53.40
2019-02-21T21:10:16.051Z,59.73
2019-02-21T21:12:45.173Z,53.08
2019-02-21T21:15:14.766Z,61.23
2019-02-21T21:17:43.900Z,45.43
2019-02-21T21:20:16.847Z,55.33
2019-02-21T21:22:45.316Z,60.73
2019-02-21T21:25:15.799Z,55.03
2019-02-21T21:27:44.976Z,58.60
2019-02-21T21:30:16.224Z,51.53
2019-02-21T21:32:45.426Z,47.30
2019-02-21T21:35:14.547Z,47.25
2019-02-21T21:37:43.743Z,54.38
2019-02-21T21:40:17.733Z,49.40
2019-02-21T21:42:46.864Z,55.35
2019-02-21T21:45:18.790Z,58.42
2019-02-21T21:47:47.931Z,50.45
2019-02-21T21:50:18.393Z,51.58
2019-02-21T21:52:47.699Z,54.25
2019-02-21T21:55:16.829Z,56.15
2019-02-21T21:57:45.951Z,62.05
2019-02-21T22:00:20.549Z,54.05
2019-02-21T22:02:49.702Z,58.50
2019-02-21T22:05:18.827Z,60.50
2019-02-21T22:07:49.399Z,55.45
2019-02-21T22:10:18.986Z,59.35
2019-02-21T22:12:48.113Z,65.00
2019-02-21T22:15:25.241Z,57.98
2019-02-21T22:17:54.496Z,61.73
2019-02-21T22:20:23.855Z,66.40
2019-02-21T22:22:52.979Z,69.92
2019-02-21T22:25:22.341Z,73.78
2019-02-21T22:27:51.461Z,65.45
2019-02-21T22:30:20.973Z,70.90
2019-02-21T22:32:50.100Z,64.75
2019-02-21T22:35:19.463Z,73.15
2019-02-21T22:37:48.588Z,70.00
2019-02-21T22:40:18.954Z,76.62
2019-02-21T22:42:48.081Z,65.00
2019-02-21T22:45:17.236Z,68.00
2019-02-21T22:47:46.343Z,70.80
2019-02-21T22:50:16.824Z,62.33
2019-02-21T22:52:45.937Z,71.62
2019-02-21T22:55:15.071Z,66.65
2019-02-21T22:57:44.220Z,66.87
2019-02-21T23:00:48.079Z,73.60
2019-02-21T23:03:18.819Z,73.35
2019-02-21T23:06:13.137Z,72.40
2019-02-21T23:08:44.857Z,75.72
2019-02-21T23:11:13.986Z,71.95
2019-02-21T23:13:43.108Z,76.75
2019-02-21T23:16:12.240Z,76.97
2019-02-21T23:18:41.358Z,74.80
2019-02-21T23:21:11.586Z,78.72
2019-02-21T23:23:41.042Z,71.60
2019-02-21T23:26:10.239Z,80.15
2019-02-21T23:28:39.363Z,77.70
2019-02-21T23:31:08.740Z,77.70
2019-02-21T23:33:39.501Z,79.35
2019-02-21T23:36:08.623Z,78.67
2019-02-21T23:38:37.746Z,86.32
2019-02-21T23:41:06.871Z,84.22
2019-02-21T23:43:35.992Z,75.32
2019-02-21T23:46:05.116Z,73.57
2019-02-21T23:48:34.244Z,83.20
2019-02-21T23:51:03.365Z,85.22
2019-02-21T23:53:32.495Z,82.05
2019-02-21T23:56:01.623Z,74.75
2019-02-21T23:58:30.756Z,78.33
